This is the latest recevied weather packets stored in our database for station/object WA1TYB-13. If no packets are shown the sender has not sent any weather packets the latest 10 day(s).
| Time | Temp. | Humidity | Pressure | Rain* | Wind** | Luminosity | Snow |
|---|---|---|---|---|---|---|---|
| 1778142560 | 13.33° C | 54% | 1012.7 hPa | 0 mm | - | 0 W/m² | - |
| 1778142256 | 13.33° C | 56% | 1012.9 hPa | 0 mm | - | 0 W/m² | - |
| 1778141953 | 13.33° C | 57% | 1012.9 hPa | 0 mm | - | 0 W/m² | - |
| 1778141649 | 13.33° C | 58% | 1012.9 hPa | 0 mm | - | 0 W/m² | - |
| 1778141346 | 12.78° C | 60% | 1012.6 hPa | 0 mm | - | 0 W/m² | - |
| 1778141042 | 12.22° C | 62% | 1012.5 hPa | 0 mm | - | 0 W/m² | - |
| 1778140737 | 12.22° C | 62% | 1012.6 hPa | 0 mm | - | 0 W/m² | - |
| 1778140434 | 11.67° C | 65% | 1012.5 hPa | 0 mm | - | 0 W/m² | - |
| 1778140130 | 12.22° C | 66% | 1012.7 hPa | 0 mm | - | 0 W/m² | - |
| 1778139827 | 12.22° C | 64% | 1012.5 hPa | 0 mm | - | 0 W/m² | - |
| 1778139525 | 12.78° C | 63% | 1012.5 hPa | 0 mm | - | 0 W/m² | - |
| 1778139221 | 12.78° C | 60% | 1012.6 hPa | 0 mm | - | 0 W/m² | - |
| 1778138918 | 12.78° C | 61% | 1012.5 hPa | 0 mm | - | 0 W/m² | - |
| 1778138616 | 12.22° C | 63% | 1012.6 hPa | 0 mm | - | 0 W/m² | - |
| 1778138313 | 12.22° C | 64% | 1012.4 hPa | 0 mm | - | 0 W/m² | - |
| 1778138010 | 12.22° C | 66% | 1012.7 hPa | 0 mm | - | 0 W/m² | - |
| 1778137706 | 12.78° C | 63% | 1012.4 hPa | 0 mm | - | 0 W/m² | - |
| 1778137404 | 12.78° C | 61% | 1012.5 hPa | 0 mm | - | 0 W/m² | - |
| 1778137101 | 13.33° C | 59% | 1012.5 hPa | 0 mm | - | 0 W/m² | - |
| 1778136797 | 13.89° C | 54% | 1012.6 hPa | 0 mm | - | 0 W/m² | - |
| 1778136494 | 13.89° C | 55% | 1012.3 hPa | 0 mm | - | 0 W/m² | - |
| 1778136193 | 13.89° C | 54% | 1012.1 hPa | 0 mm | - | 0 W/m² | - |
| 1778135890 | 13.89° C | 53% | 1012.4 hPa | 0 mm | - | 0 W/m² | - |
| 1778135587 | 13.89° C | 54% | 1012.3 hPa | 0 mm | - | 0 W/m² | - |
| 1778135284 | 13.89° C | 54% | 1012.3 hPa | 0 mm | - | 0 W/m² | - |
* Rain latest hour (hover to see other rain measurements)
** Current wind speed in m/s (hover to see current wind gust speed)